Time;durP1;ratioP1;P1;durP2;ratioP2;P2;SDS_P1;SDS_P2;PMS_P1;PMS_P2;Temp;Humidity;BMP_temperature;BMP_pressure;BME280_temperature;BME280_humidity;BME280_pressure;Samples;Min_cycle;Max_cycle;Signal;HPM_P1;HPM_P2
2021/09/04 00:01:47;;;;;;;17.15;11.93;;;;;;;16.17;75.99;101594.97;5001390;28;20019;-75
2021/09/04 00:04:12;;;;;;;19.67;11.50;;;;;;;16.15;75.85;101591.72;4985695;28;20083;-74
2021/09/04 00:06:38;;;;;;;19.98;12.70;;;;;;;16.11;75.83;101587.84;5001688;28;20018;-75
2021/09/04 00:09:04;;;;;;;18.15;11.38;;;;;;;16.06;76.32;101585.72;4984281;28;20030;-75
2021/09/04 00:11:30;;;;;;;19.80;11.52;;;;;;;16.03;76.41;101587.88;4987217;28;20116;-75
2021/09/04 00:13:55;;;;;;;18.70;10.68;;;;;;;15.97;76.56;101571.06;4998623;28;20088;-75
2021/09/04 00:16:22;;;;;;;20.25;12.25;;;;;;;15.95;76.59;101571.25;4998276;28;20036;-75
2021/09/04 00:18:47;;;;;;;22.35;11.95;;;;;;;15.95;76.34;101570.44;4984368;28;20387;-75
2021/09/04 00:21:13;;;;;;;22.80;11.82;;;;;;;15.95;76.25;101573.03;5000902;28;20080;-75
2021/09/04 00:23:38;;;;;;;22.45;11.95;;;;;;;15.93;76.29;101573.22;4999602;28;20042;-75
2021/09/04 00:26:04;;;;;;;17.33;11.45;;;;;;;15.93;76.14;101570.59;4999468;28;20035;-75
2021/09/04 00:28:29;;;;;;;19.00;12.10;;;;;;;15.91;76.02;101566.53;4987282;28;20030;-75
2021/09/04 00:30:54;;;;;;;20.02;11.75;;;;;;;15.89;76.25;101574.53;4987339;28;20038;-75
2021/09/04 00:33:20;;;;;;;26.63;12.43;;;;;;;15.85;76.63;101565.41;4987716;28;20307;-75
2021/09/04 00:35:45;;;;;;;21.15;11.80;;;;;;;15.85;76.61;101564.63;4986574;28;20431;-75
2021/09/04 00:38:11;;;;;;;22.17;11.85;;;;;;;15.80;76.55;101562.50;5004882;28;20049;-75
2021/09/04 00:40:36;;;;;;;19.45;11.85;;;;;;;15.76;76.76;101566.44;4987914;28;20343;-75
2021/09/04 00:43:03;;;;;;;18.92;12.20;;;;;;;15.71;76.92;101566.13;5003527;28;20145;-75
2021/09/04 00:45:28;;;;;;;21.85;12.25;;;;;;;15.68;77.06;101561.25;4985526;28;20126;-75
2021/09/04 00:48:03;;;;;;;20.23;11.70;;;;;;;15.67;76.55;101563.03;5002194;28;20259;-75
2021/09/04 00:50:32;;;;;;;19.13;11.57;;;;;;;15.67;76.79;101570.06;4985712;28;20030;-75
2021/09/04 00:52:58;;;;;;;27.83;14.13;;;;;;;15.64;76.84;101559.97;4985711;28;20046;-75
2021/09/04 00:55:24;;;;;;;22.80;12.75;;;;;;;15.60;77.06;101561.28;4989583;28;20030;-76
2021/09/04 00:57:50;;;;;;;22.02;12.05;;;;;;;15.55;77.24;101559.16;5005745;28;20061;-75
2021/09/04 01:00:17;;;;;;;21.80;11.52;;;;;;;15.50;77.52;101554.47;5001803;28;20022;-75
2021/09/04 01:02:44;;;;;;;19.40;10.52;;;;;;;15.44;77.60;101555.13;5002704;28;20506;-75
2021/09/04 01:05:13;;;;;;;18.55;11.07;;;;;;;15.43;77.60;101550.91;4985058;28;20030;-75
2021/09/04 01:07:42;;;;;;;20.80;11.73;;;;;;;15.38;77.80;101559.22;4986656;28;21623;-76
2021/09/04 01:10:10;;;;;;;18.52;11.30;;;;;;;15.37;77.72;101556.81;5003362;28;20045;-75
2021/09/04 01:12:37;;;;;;;24.42;12.85;;;;;;;15.34;77.79;101559.75;4986443;28;20069;-76
2021/09/04 01:15:04;;;;;;;23.08;11.75;;;;;;;15.30;77.81;101554.03;4970959;28;20029;-76
2021/09/04 01:17:30;;;;;;;18.45;10.15;;;;;;;15.28;77.72;101550.78;4988360;28;20034;-75
2021/09/04 01:19:55;;;;;;;21.65;12.05;;;;;;;15.26;77.81;101547.53;4986423;28;20026;-75
2021/09/04 01:22:21;;;;;;;20.23;10.50;;;;;;;15.24;77.66;101549.50;5005061;28;20031;-75
2021/09/04 01:24:49;;;;;;;18.48;10.82;;;;;;;15.21;77.76;101544.59;5001570;28;20031;-75
2021/09/04 01:27:17;;;;;;;21.38;12.55;;;;;;;15.17;77.97;101543.31;5005453;28;20034;-75
2021/09/04 01:29:42;;;;;;;21.63;12.18;;;;;;;15.13;77.90;101550.66;4989182;28;20034;-75
2021/09/04 01:32:08;;;;;;;24.95;12.55;;;;;;;15.10;77.93;101553.59;5000966;28;20045;-75
2021/09/04 01:34:33;;;;;;;21.75;11.68;;;;;;;15.09;78.22;101556.41;5004490;28;20038;-75
2021/09/04 01:36:59;;;;;;;21.67;11.75;;;;;;;15.06;78.21;101552.31;4985821;28;20431;-75
2021/09/04 01:39:24;;;;;;;20.98;12.52;;;;;;;15.06;78.00;101549.69;4986342;28;20035;-75
2021/09/04 01:41:50;;;;;;;30.95;13.95;;;;;;;15.03;78.25;101555.28;5002234;28;20026;-76
2021/09/04 01:44:16;;;;;;;22.80;12.55;;;;;;;15.01;78.52;101552.00;4986363;28;20037;-76
2021/09/04 01:46:41;;;;;;;26.08;12.93;;;;;;;14.98;78.46;101541.91;4984958;28;20049;-76
2021/09/04 01:49:08;;;;;;;22.95;12.15;;;;;;;14.98;78.73;101547.13;4986634;28;20503;-76
2021/09/04 01:51:33;;;;;;;21.38;11.57;;;;;;;14.98;78.37;101545.31;5001963;28;20026;-76
2021/09/04 01:53:59;;;;;;;24.88;13.40;;;;;;;14.95;78.21;101540.41;5001409;28;20084;-75
2021/09/04 01:56:25;;;;;;;23.42;12.02;;;;;;;14.91;78.21;101535.69;5001262;28;20022;-75
2021/09/04 01:58:50;;;;;;;26.05;12.07;;;;;;;14.87;78.29;101534.41;4984854;28;20508;-75
2021/09/04 02:01:16;;;;;;;26.83;13.00;;;;;;;14.84;78.49;101529.50;4987385;28;20030;-76
2021/09/04 02:03:41;;;;;;;21.00;11.68;;;;;;;14.82;78.64;101527.06;5000014;28;20053;-77
2021/09/04 02:06:07;;;;;;;24.63;13.55;;;;;;;14.82;78.73;101531.47;5000126;28;20515;-75
2021/09/04 02:08:33;;;;;;;27.35;13.35;;;;;;;14.79;78.98;101535.25;4987523;28;20037;-75
2021/09/04 02:10:59;;;;;;;24.70;13.57;;;;;;;14.75;78.91;101532.16;5001621;28;20092;-76
2021/09/04 02:13:25;;;;;;;23.08;13.23;;;;;;;14.72;78.96;101540.28;5000333;28;20030;-75
2021/09/04 02:15:51;;;;;;;25.45;13.52;;;;;;;14.67;79.51;101539.16;4986636;28;20112;-75
2021/09/04 02:18:16;;;;;;;23.15;12.48;;;;;;;14.63;79.83;101523.00;5000743;28;20782;-75
2021/09/04 02:20:42;;;;;;;30.65;13.40;;;;;;;14.62;79.96;101529.22;4988531;28;20527;-75
2021/09/04 02:23:08;;;;;;;29.95;14.65;;;;;;;14.63;79.96;101522.22;5000916;28;20084;-75
2021/09/04 02:25:35;;;;;;;28.45;13.35;;;;;;;14.62;79.86;101521.41;4984826;28;20125;-75
2021/09/04 02:28:02;;;;;;;26.48;13.70;;;;;;;14.62;79.85;101525.78;5000370;28;20548;-76
2021/09/04 02:30:28;;;;;;;25.38;13.63;;;;;;;14.59;79.84;101521.72;5001456;28;20053;-76
2021/09/04 02:32:54;;;;;;;28.10;14.15;;;;;;;14.55;80.09;101517.78;4985992;28;20030;-76
2021/09/04 02:35:19;;;;;;;27.05;13.85;;;;;;;14.52;80.24;101518.94;4999925;28;20155;-76
2021/09/04 02:37:45;;;;;;;26.38;13.30;;;;;;;14.50;80.45;101518.25;4985578;28;20472;-77
2021/09/04 02:40:10;;;;;;;24.15;12.70;;;;;;;14.50;80.51;101523.47;4984952;28;20034;-76
2021/09/04 02:42:37;;;;;;;27.10;13.40;;;;;;;14.50;80.63;101523.47;4988590;28;20034;-75
2021/09/04 02:45:03;;;;;;;27.90;14.00;;;;;;;14.48;80.60;101525.44;5002334;28;20034;-75
2021/09/04 02:47:31;;;;;;;30.02;12.77;;;;;;;14.45;80.70;101519.72;5001201;28;20035;-75
2021/09/04 02:49:57;;;;;;;27.08;14.13;;;;;;;14.45;80.74;101515.34;4984517;28;20026;-74
2021/09/04 02:52:23;;;;;;;27.38;13.73;;;;;;;14.47;80.36;101507.38;4985431;28;20053;-77
2021/09/04 02:54:49;;;;;;;24.80;13.18;;;;;;;14.45;80.00;101507.53;5002781;28;20676;-76
2021/09/04 02:57:14;;;;;;;29.23;15.10;;;;;;;14.44;79.92;101518.91;4997551;28;20687;-75
2021/09/04 02:59:40;;;;;;;27.42;14.20;;;;;;;14.42;80.10;101515.66;4985347;28;20328;-75
2021/09/04 03:02:08;;;;;;;29.10;14.55;;;;;;;14.39;80.29;101514.22;5000692;28;20109;-76
2021/09/04 03:04:34;;;;;;;29.42;15.05;;;;;;;14.38;80.59;101512.56;5000095;28;20029;-74
2021/09/04 03:07:01;;;;;;;32.72;14.55;;;;;;;14.34;80.63;101524.31;4984222;28;20034;-76
2021/09/04 03:09:27;;;;;;;23.90;13.77;;;;;;;14.31;80.57;101519.41;4985301;28;20545;-74
2021/09/04 03:11:52;;;;;;;29.63;14.82;;;;;;;14.29;80.58;101525.78;4985131;28;20037;-75
2021/09/04 03:14:18;;;;;;;26.35;13.88;;;;;;;14.28;80.34;101518.91;5001807;28;20026;-76
2021/09/04 03:16:44;;;;;;;28.08;14.75;;;;;;;14.26;80.33;101515.66;4987365;28;20049;-76
2021/09/04 03:19:09;;;;;;;28.13;14.60;;;;;;;14.25;80.32;101520.06;5001888;28;20310;-76
2021/09/04 03:21:37;;;;;;;28.35;13.82;;;;;;;14.24;80.63;101525.44;5000223;28;20066;-75
2021/09/04 03:24:03;;;;;;;26.15;14.40;;;;;;;14.22;80.27;101520.38;4998459;28;20038;-74
2021/09/04 03:26:30;;;;;;;30.48;14.57;;;;;;;14.19;80.24;101513.72;5003129;28;20034;-76
2021/09/04 03:28:55;;;;;;;27.75;15.07;;;;;;;14.17;80.48;101520.06;4995597;28;20081;-75
2021/09/04 03:31:21;;;;;;;30.33;15.45;;;;;;;14.14;80.59;101515.97;4987561;28;20476;-77
2021/09/04 03:33:48;;;;;;;30.80;15.05;;;;;;;14.15;80.50;101522.84;4998064;28;20543;-76
2021/09/04 03:36:14;;;;;;;31.70;14.93;;;;;;;14.14;80.49;101521.19;4984772;28;20034;-75
2021/09/04 03:38:39;;;;;;;32.45;14.98;;;;;;;14.14;80.79;101521.19;5000609;28;20118;-75
2021/09/04 03:41:05;;;;;;;29.83;15.07;;;;;;;14.13;80.78;101521.38;5001855;28;20117;-76
2021/09/04 03:43:31;;;;;;;25.92;13.07;;;;;;;14.11;80.96;101518.09;4999581;28;20413;-75
2021/09/04 03:45:57;;;;;;;27.17;14.10;;;;;;;14.09;81.09;101523.50;4999180;28;20034;-73
2021/09/04 03:48:24;;;;;;;29.27;14.40;;;;;;;14.07;81.03;101522.00;5000176;28;20030;-75
2021/09/04 03:50:50;;;;;;;26.80;14.70;;;;;;;14.07;81.09;101516.78;5000689;28;20034;-74
2021/09/04 03:53:16;;;;;;;31.38;14.65;;;;;;;14.04;80.93;101530.97;5000647;28;20026;-75
2021/09/04 03:55:41;;;;;;;29.85;14.60;;;;;;;14.00;81.02;101522.66;4998489;28;20053;-74
2021/09/04 03:58:06;;;;;;;30.33;15.68;;;;;;;13.99;81.08;101525.41;4983905;28;20042;-76
2021/09/04 04:00:32;;;;;;;28.10;14.63;;;;;;;13.96;80.86;101529.16;5000294;28;20030;-76
2021/09/04 04:02:59;;;;;;;28.50;14.95;;;;;;;13.94;80.59;101527.72;4987317;28;20121;-78
2021/09/04 04:05:25;;;;;;;28.70;14.18;;;;;;;13.93;80.58;101532.09;5004021;28;20073;-79
2021/09/04 04:07:52;;;;;;;28.73;14.95;;;;;;;13.91;80.39;101528.03;5001924;28;20432;-75
2021/09/04 04:10:17;;;;;;;32.08;15.57;;;;;;;13.84;80.76;101533.03;5003059;28;20098;-75
2021/09/04 04:12:44;;;;;;;32.80;16.92;;;;;;;13.81;80.94;101531.59;4986725;28;20058;-75
2021/09/04 04:15:10;;;;;;;34.90;15.07;;;;;;;13.81;81.23;101536.78;5000874;28;20038;-76
2021/09/04 04:17:36;;;;;;;32.30;15.63;;;;;;;13.80;81.13;101532.53;5002319;28;20022;-76
2021/09/04 04:20:03;;;;;;;29.50;16.60;;;;;;;13.79;81.38;101537.94;4987165;28;20511;-75
2021/09/04 04:22:29;;;;;;;34.13;16.83;;;;;;;13.79;81.92;101532.72;5002393;28;20066;-75
2021/09/04 04:24:54;;;;;;;30.73;16.15;;;;;;;13.77;81.77;101532.88;5002086;28;20034;-75
2021/09/04 04:27:20;;;;;;;35.55;17.90;;;;;;;13.76;81.70;101533.03;4985256;28;20034;-78
2021/09/04 04:29:47;;;;;;;30.80;15.40;;;;;;;13.75;81.83;101534.84;5002775;28;20112;-74
2021/09/04 04:32:13;;;;;;;31.98;16.95;;;;;;;13.76;81.90;101531.22;4988251;28;20030;-75
2021/09/04 04:34:39;;;;;;;34.88;16.92;;;;;;;13.77;81.99;101539.91;4988260;28;20855;-77
2021/09/04 04:37:06;;;;;;;31.88;16.35;;;;;;;13.73;82.22;101536.78;4988249;28;20073;-75
2021/09/04 04:39:31;;;;;;;31.60;15.93;;;;;;;13.71;82.32;101543.94;4988963;28;20030;-77
2021/09/04 04:41:59;;;;;;;31.77;16.45;;;;;;;13.68;82.87;101543.44;5003471;28;20172;-75
2021/09/04 04:44:25;;;;;;;39.08;19.10;;;;;;;13.65;83.20;101547.16;5005287;28;20076;-76
2021/09/04 04:46:52;;;;;;;54.25;25.75;;;;;;;13.66;84.17;101548.81;5003861;28;20041;-77
2021/09/04 04:49:17;;;;;;;56.78;24.80;;;;;;;13.63;84.86;101536.09;5005461;28;20026;-75
2021/09/04 04:51:45;;;;;;;54.75;24.42;;;;;;;13.61;85.33;101543.25;5004689;28;20029;-77
2021/09/04 04:54:11;;;;;;;62.03;28.25;;;;;;;13.62;85.73;101537.88;5001548;28;20049;-74
2021/09/04 04:56:37;;;;;;;88.93;36.42;;;;;;;13.75;86.26;101540.03;4990807;28;20034;-75
2021/09/04 04:59:02;;;;;;;76.43;33.88;;;;;;;13.63;86.70;101544.72;4990854;28;20524;-75
2021/09/04 05:01:27;;;;;;;75.95;33.25;;;;;;;13.61;86.86;101545.84;4989713;28;20034;-75
2021/09/04 05:03:54;;;;;;;93.20;37.03;;;;;;;13.60;87.55;101546.84;5002292;28;20516;-76
2021/09/04 05:06:20;;;;;;;106.35;43.60;;;;;;;13.68;87.79;101546.84;5002470;28;20030;-74
2021/09/04 05:08:45;;;;;;;123.75;47.20;;;;;;;13.67;87.75;101553.03;4986100;28;20026;-78
2021/09/04 05:11:10;;;;;;;133.95;49.53;;;;;;;13.69;88.11;101551.09;5004591;28;21277;-76
2021/09/04 05:13:37;;;;;;;137.13;53.00;;;;;;;13.67;88.28;101557.44;4999836;28;20026;-75
2021/09/04 05:16:03;;;;;;;137.18;52.38;;;;;;;13.66;88.42;101561.84;5001824;28;20085;-75
2021/09/04 05:18:28;;;;;;;143.15;52.00;;;;;;;13.65;88.83;101564.59;4987180;28;20428;-76
2021/09/04 05:20:55;;;;;;;150.90;54.28;;;;;;;13.61;89.01;101566.69;4980152;28;20034;-76
2021/09/04 05:23:22;;;;;;;137.05;49.75;;;;;;;13.62;89.18;101569.16;5000067;28;20397;-76
2021/09/04 05:25:48;;;;;;;136.88;50.72;;;;;;;13.66;89.18;101577.47;4985602;28;20037;-76
2021/09/04 05:28:14;;;;;;;159.60;55.30;;;;;;;13.68;88.92;101570.31;4985869;28;20400;-78
2021/09/04 05:30:39;;;;;;;154.73;56.60;;;;;;;13.65;89.38;101568.00;5001065;28;20030;-75
2021/09/04 05:33:05;;;;;;;153.40;52.05;;;;;;;13.68;89.32;101575.53;4987060;28;20034;-76
2021/09/04 05:35:30;;;;;;;173.18;59.55;;;;;;;13.70;89.24;101576.19;4986082;28;20069;-77
2021/09/04 05:37:56;;;;;;;150.70;53.90;;;;;;;13.76;89.05;101579.94;5000257;28;20033;-78
2021/09/04 05:40:21;;;;;;;177.90;61.00;;;;;;;13.74;89.06;101577.50;5002147;28;20073;-76
2021/09/04 05:42:47;;;;;;;171.05;59.22;;;;;;;13.77;88.97;101574.59;5002546;28;20041;-76
2021/09/04 05:45:12;;;;;;;161.77;55.65;;;;;;;13.78;89.02;101584.03;4988418;28;20504;-79
2021/09/04 05:47:38;;;;;;;162.95;59.40;;;;;;;13.86;88.88;101580.63;4968859;28;20030;-75
2021/09/04 05:50:04;;;;;;;186.48;64.07;;;;;;;13.95;88.11;101581.47;4987690;28;20046;-76
2021/09/04 05:52:30;;;;;;;172.07;61.97;;;;;;;13.85;88.33;101581.63;4985507;28;20030;-76
2021/09/04 05:54:56;;;;;;;184.35;65.38;;;;;;;13.84;88.82;101585.19;5004430;28;20085;-74
2021/09/04 05:57:22;;;;;;;166.13;61.78;;;;;;;13.88;88.74;101585.69;4988955;28;20144;-76
2021/09/04 05:59:47;;;;;;;162.32;58.03;;;;;;;13.92;88.70;101587.81;4985298;28;20100;-75
2021/09/04 06:02:13;;;;;;;152.02;57.15;;;;;;;13.93;88.38;101591.25;5001166;28;20030;-78
2021/09/04 06:04:39;;;;;;;146.00;57.45;;;;;;;13.96;88.45;101588.34;5001056;28;20035;-76
2021/09/04 06:07:04;;;;;;;153.98;58.22;;;;;;;13.92;88.05;101593.03;4988843;28;20030;-75
2021/09/04 06:09:30;;;;;;;130.15;53.58;;;;;;;13.85;88.27;101586.03;4987930;28;20030;-75
2021/09/04 06:11:56;;;;;;;149.82;58.00;;;;;;;13.80;88.23;101595.09;5002054;28;20038;-75
2021/09/04 06:14:21;;;;;;;152.27;60.17;;;;;;;13.79;88.08;101590.88;4999667;28;20061;-75
2021/09/04 06:16:47;;;;;;;158.82;63.28;;;;;;;13.83;87.93;101588.78;4968933;28;20038;-75
2021/09/04 06:19:12;;;;;;;146.07;59.63;;;;;;;13.78;87.77;101593.63;5002614;28;20192;-75
2021/09/04 06:21:38;;;;;;;159.13;59.63;;;;;;;13.81;87.88;101598.53;4970056;28;20030;-76
2021/09/04 06:24:04;;;;;;;148.45;57.15;;;;;;;13.78;88.29;101596.25;4986511;28;20038;-75
2021/09/04 06:26:30;;;;;;;151.50;59.03;;;;;;;13.77;88.58;101592.81;5001805;28;20551;-76
2021/09/04 06:28:55;;;;;;;143.18;55.60;;;;;;;13.81;88.65;101598.53;4984354;28;20384;-75
2021/09/04 06:31:21;;;;;;;154.10;58.33;;;;;;;13.90;87.74;101591.56;4988292;28;20096;-75
2021/09/04 06:33:46;;;;;;;154.02;55.78;;;;;;;13.90;87.64;101599.38;4987365;28;20480;-74
2021/09/04 06:36:12;;;;;;;158.63;58.92;;;;;;;13.81;87.90;101599.34;4985432;28;20034;-75
2021/09/04 06:38:38;;;;;;;151.45;60.20;;;;;;;13.82;87.68;101606.22;4998467;28;20034;-75
2021/09/04 06:41:04;;;;;;;160.93;61.20;;;;;;;13.92;87.40;101611.28;5003183;28;20049;-76
2021/09/04 06:43:29;;;;;;;152.93;57.38;;;;;;;13.93;87.63;101596.47;4984467;28;20085;-76
2021/09/04 06:45:54;;;;;;;167.10;63.22;;;;;;;13.87;87.66;101610.13;5002034;28;20197;-75
2021/09/04 06:48:20;;;;;;;165.50;62.63;;;;;;;13.90;87.61;101607.19;4986651;28;20085;-75
2021/09/04 06:50:45;;;;;;;161.88;60.13;;;;;;;13.93;86.87;101604.28;4984211;28;20484;-74
2021/09/04 06:53:11;;;;;;;149.50;61.00;;;;;;;13.86;87.13;101608.47;4984878;28;20100;-78
2021/09/04 06:55:37;;;;;;;161.32;62.95;;;;;;;13.82;87.56;101607.97;5003518;28;20038;-77
2021/09/04 06:58:02;;;;;;;178.52;70.00;;;;;;;13.90;87.03;101609.78;4983366;28;20050;-75
2021/09/04 07:00:27;;;;;;;152.90;58.83;;;;;;;13.93;86.12;101610.31;5003618;28;20041;-75
2021/09/04 07:02:53;;;;;;;147.32;58.25;;;;;;;13.96;86.55;101612.59;4984807;28;20045;-75
2021/09/04 07:05:18;;;;;;;154.50;56.65;;;;;;;13.90;86.12;101615.84;4994048;28;20026;-75
2021/09/04 07:07:45;;;;;;;141.75;55.95;;;;;;;13.89;86.61;101609.00;5005366;28;20026;-75
2021/09/04 07:10:11;;;;;;;154.85;57.80;;;;;;;13.88;86.67;101609.16;4986928;28;20022;-75
2021/09/04 07:12:37;;;;;;;152.45;60.30;;;;;;;13.95;87.23;101610.97;4983358;28;20504;-75
2021/09/04 07:15:02;;;;;;;162.57;60.20;;;;;;;14.00;85.88;101610.50;4994027;28;20034;-75
2021/09/04 07:17:28;;;;;;;151.35;58.17;;;;;;;13.91;86.74;101614.06;5000571;28;20034;-75
2021/09/04 07:19:53;;;;;;;143.43;57.10;;;;;;;13.89;86.85;101623.81;4983216;28;20456;-74
2021/09/04 07:22:19;;;;;;;146.43;54.80;;;;;;;13.82;87.20;101615.81;4985002;28;20046;-75
2021/09/04 07:24:44;;;;;;;149.15;57.42;;;;;;;13.82;86.74;101621.84;4984496;28;20026;-75
2021/09/04 07:27:09;;;;;;;149.25;58.00;;;;;;;13.85;86.46;101622.50;5001368;28;20415;-76
2021/09/04 07:29:35;;;;;;;140.15;54.45;;;;;;;13.90;86.15;101617.63;4998615;28;20027;-75
2021/09/04 07:32:00;;;;;;;142.20;56.50;;;;;;;13.83;86.35;101626.06;4985944;28;20045;-75
2021/09/04 07:34:26;;;;;;;137.32;53.83;;;;;;;13.87;86.55;101626.59;5001605;28;20034;-75
2021/09/04 07:36:51;;;;;;;146.35;56.55;;;;;;;13.95;86.18;101626.59;4984713;28;20042;-74
2021/09/04 07:39:17;;;;;;;150.65;60.20;;;;;;;13.99;86.03;101624.50;5001402;28;20488;-75
2021/09/04 07:41:42;;;;;;;137.27;55.85;;;;;;;13.94;86.27;101632.81;4999974;28;20031;-75
2021/09/04 07:44:08;;;;;;;152.30;57.38;;;;;;;13.92;86.13;101629.53;5000614;28;20120;-75
2021/09/04 07:46:33;;;;;;;140.55;57.47;;;;;;;13.96;85.81;101633.47;5001081;28;20050;-74
2021/09/04 07:48:59;;;;;;;133.45;55.33;;;;;;;13.90;85.83;101633.25;4983431;28;20073;-74
2021/09/04 07:51:24;;;;;;;140.85;56.10;;;;;;;13.97;86.17;101636.88;4997426;28;20038;-74
2021/09/04 07:53:50;;;;;;;129.85;54.40;;;;;;;13.96;86.19;101638.69;4988089;28;20041;-76
2021/09/04 07:56:15;;;;;;;129.23;53.58;;;;;;;13.97;86.02;101637.69;4983808;28;20034;-74
2021/09/04 07:58:40;;;;;;;137.07;56.15;;;;;;;13.98;85.52;101636.72;4986715;28;20037;-75
2021/09/04 08:01:06;;;;;;;123.93;52.90;;;;;;;14.02;85.73;101629.41;5000738;28;20034;-74
2021/09/04 08:03:31;;;;;;;128.18;53.35;;;;;;;14.10;84.69;101634.63;4999428;28;20038;-74
2021/09/04 08:05:57;;;;;;;116.97;50.10;;;;;;;14.08;85.12;101641.00;4986666;28;20023;-76
2021/09/04 08:08:23;;;;;;;142.02;57.95;;;;;;;14.19;84.75;101640.69;5000937;28;20026;-75
2021/09/04 08:10:48;;;;;;;134.15;53.95;;;;;;;14.16;84.30;101638.41;4987128;28;20133;-74
2021/09/04 08:13:14;;;;;;;132.88;54.97;;;;;;;14.18;84.85;101652.09;5010954;28;20091;-74
2021/09/04 08:15:40;;;;;;;140.38;55.08;;;;;;;14.17;84.14;101640.84;4990396;28;20030;-73
2021/09/04 08:18:06;;;;;;;131.35;53.42;;;;;;;14.23;84.29;101641.19;4987515;28;20038;-75
2021/09/04 08:20:32;;;;;;;115.57;50.17;;;;;;;14.31;84.27;101646.44;4986199;28;20180;-75
2021/09/04 08:22:57;;;;;;;122.68;52.28;;;;;;;14.24;84.07;101643.66;5003565;28;20084;-74
2021/09/04 08:25:23;;;;;;;122.72;49.13;;;;;;;14.28;84.12;101646.72;5006169;28;20034;-74
2021/09/04 08:27:48;;;;;;;123.40;52.05;;;;;;;14.33;84.25;101639.25;5009625;28;20248;-74
2021/09/04 08:30:14;;;;;;;124.75;51.25;;;;;;;14.35;84.04;101645.97;4982838;28;20488;-74
2021/09/04 08:32:40;;;;;;;118.45;51.10;;;;;;;14.48;83.71;101648.06;4999231;28;20074;-75
2021/09/04 08:35:06;;;;;;;124.60;53.72;;;;;;;14.44;84.15;101645.97;5005991;28;20035;-75
2021/09/04 08:37:32;;;;;;;122.47;56.40;;;;;;;14.53;83.23;101647.63;5002180;28;20046;-74
2021/09/04 08:39:57;;;;;;;124.03;54.10;;;;;;;14.52;82.90;101644.19;4984775;28;20041;-75
2021/09/04 08:42:23;;;;;;;130.88;55.03;;;;;;;14.57;83.20;101643.72;4985889;28;20034;-76
2021/09/04 08:44:48;;;;;;;125.32;53.90;;;;;;;14.50;83.42;101638.28;4984845;28;20034;-76
2021/09/04 08:47:19;;;;;;;131.45;54.95;;;;;;;14.49;83.53;101652.34;4998681;28;20045;-75
2021/09/04 08:49:47;;;;;;;130.75;55.70;;;;;;;14.58;82.42;101646.19;5001952;28;20041;-74
2021/09/04 08:52:12;;;;;;;135.18;58.50;;;;;;;14.55;82.56;101646.47;5002927;28;20026;-74
2021/09/04 08:54:38;;;;;;;128.88;54.17;;;;;;;14.50;82.74;101650.53;4985989;28;20799;-74
2021/09/04 08:57:03;;;;;;;135.75;57.85;;;;;;;14.57;82.66;101648.94;4986202;28;20041;-74
2021/09/04 08:59:29;;;;;;;127.75;54.72;;;;;;;14.71;82.86;101656.16;5001334;28;20042;-74
2021/09/04 09:01:54;;;;;;;126.65;54.88;;;;;;;14.74;82.62;101655.81;5007730;28;20100;-75
2021/09/04 09:04:22;;;;;;;123.00;54.70;;;;;;;14.77;81.42;101649.47;4986213;28;20026;-75
2021/09/04 09:06:48;;;;;;;120.75;52.78;;;;;;;14.90;81.28;101656.78;4986606;28;20031;-75
2021/09/04 09:09:15;;;;;;;118.57;53.03;;;;;;;14.88;81.67;101656.97;4988899;28;20516;-72
2021/09/04 09:11:40;;;;;;;119.45;53.00;;;;;;;15.01;81.81;101660.88;5003201;28;20026;-75
2021/09/04 09:14:06;;;;;;;125.10;54.20;;;;;;;14.97;80.55;101658.59;4986960;28;20041;-75
2021/09/04 09:16:32;;;;;;;119.82;51.45;;;;;;;14.93;81.01;101656.47;4986802;28;20062;-73
2021/09/04 09:19:04;;;;;;;103.65;47.70;;;;;;;14.97;81.44;101660.38;4986880;28;20435;-74
2021/09/04 09:21:38;;;;;;;117.68;53.30;;;;;;;15.07;80.89;101654.97;4990294;28;20089;-74
2021/09/04 09:24:08;;;;;;;117.40;49.83;;;;;;;15.14;79.89;101663.78;5001320;28;20322;-75
2021/09/04 09:26:33;;;;;;;127.05;52.80;;;;;;;15.23;79.47;101662.00;5008907;28;20072;-74
2021/09/04 09:29:15;;;;;;;113.47;47.72;;;;;;;15.39;79.74;101654.13;4998923;28;20396;-73
2021/09/04 09:31:41;;;;;;;115.38;47.10;;;;;;;15.37;77.76;101651.69;4998964;28;20391;-74
2021/09/04 09:34:11;;;;;;;128.05;53.90;;;;;;;15.35;78.98;101653.66;5000100;28;20030;-76
2021/09/04 09:36:58;;;;;;;115.85;49.03;;;;;;;15.52;78.73;101646.59;5007710;28;20104;-77
2021/09/04 09:39:32;;;;;;;105.10;45.72;;;;;;;15.58;78.07;101652.94;5014643;28;20509;-75
2021/09/04 09:41:59;;;;;;;124.30;50.72;;;;;;;15.64;77.35;101654.88;4987962;28;20149;-73
2021/09/04 09:44:27;;;;;;;111.55;48.05;;;;;;;15.66;77.72;101646.88;5001657;28;20499;-75
2021/09/04 09:46:55;;;;;;;108.93;48.38;;;;;;;15.70;77.27;101648.97;4993195;28;20034;-75
2021/09/04 09:49:31;;;;;;;97.18;44.58;;;;;;;15.68;76.68;101650.94;5011010;28;20034;-74
2021/09/04 09:52:00;;;;;;;104.43;45.55;;;;;;;15.74;76.90;101644.25;4985700;28;20416;-75
2021/09/04 09:54:27;;;;;;;105.90;47.95;;;;;;;15.88;76.67;101647.94;5002142;28;20038;-75
2021/09/04 09:56:54;;;;;;;99.20;43.22;;;;;;;15.75;76.61;101651.91;4984425;28;20026;-75
2021/09/04 09:59:22;;;;;;;99.05;44.63;;;;;;;15.69;77.21;101647.34;5001039;28;20038;-75
2021/09/04 10:01:48;;;;;;;98.38;43.33;;;;;;;15.89;76.32;101645.16;4988139;28;20480;-75
2021/09/04 10:04:15;;;;;;;101.28;44.67;;;;;;;16.18;75.69;101640.25;4987931;28;20022;-75
2021/09/04 10:06:42;;;;;;;95.25;44.65;;;;;;;16.44;74.42;101651.22;4998147;28;20034;-78
2021/09/04 10:09:08;;;;;;;90.28;41.70;;;;;;;16.44;74.15;101645.19;4985700;28;20435;-75
2021/09/04 10:11:37;;;;;;;88.00;41.33;;;;;;;16.39;74.50;101643.09;4986960;28;20052;-75
2021/09/04 10:14:03;;;;;;;92.57;45.60;;;;;;;16.72;74.34;101632.38;5000410;28;20057;-75
2021/09/04 10:16:28;;;;;;;102.22;45.25;;;;;;;17.01;73.74;101625.59;4987681;28;20036;-75
2021/09/04 10:18:55;;;;;;;104.07;45.08;;;;;;;17.13;72.36;101629.41;4987847;28;20449;-76
2021/09/04 10:21:20;;;;;;;95.75;43.72;;;;;;;17.24;72.37;101626.34;4994791;28;20480;-76
2021/09/04 10:23:51;;;;;;;80.32;40.55;;;;;;;17.63;71.34;101625.28;4991887;28;20033;-76
2021/09/04 10:26:31;;;;;;;82.80;39.35;;;;;;;17.97;70.63;101616.00;4985335;28;20061;-78
2021/09/04 10:29:13;;;;;;;86.68;41.72;;;;;;;18.00;68.73;101620.88;4987369;28;20500;-76
2021/09/04 10:32:01;;;;;;;92.78;42.33;;;;;;;17.92;70.15;101621.00;5000643;28;20045;-76
2021/09/04 10:34:30;;;;;;;89.47;42.22;;;;;;;18.17;69.80;101621.47;4999590;28;20052;-79
2021/09/04 10:37:18;;;;;;;87.47;40.75;;;;;;;18.44;68.58;101625.16;4999113;28;20048;-76
2021/09/04 10:39:50;;;;;;;94.40;43.80;;;;;;;18.45;69.28;101618.09;5001651;28;20034;-76
2021/09/04 10:42:37;;;;;;;84.28;42.83;;;;;;;18.64;69.65;101614.81;4985692;28;20050;-75
2021/09/04 10:45:15;;;;;;;96.80;43.75;;;;;;;18.92;68.31;101616.69;4980194;28;20105;-76
2021/09/04 10:47:42;;;;;;;80.75;38.10;;;;;;;19.06;67.01;101613.16;4998825;28;20117;-76
2021/09/04 10:50:22;;;;;;;94.57;45.13;;;;;;;19.06;66.82;101609.69;4997990;28;20022;-76
2021/09/04 10:52:59;;;;;;;88.90;41.22;;;;;;;19.19;66.87;101604.53;4999380;28;20559;-76
2021/09/04 10:55:29;;;;;;;83.50;40.47;;;;;;;19.10;66.67;101610.13;4995126;28;20037;-75
2021/09/04 10:58:14;;;;;;;97.70;47.90;;;;;;;19.22;66.50;101609.41;4997348;28;20061;-77
2021/09/04 11:00:42;;;;;;;78.70;40.55;;;;;;;19.35;65.56;101603.41;4997252;28;20220;-76
2021/09/04 11:03:10;;;;;;;76.93;40.25;;;;;;;19.10;64.86;101602.22;4983598;28;20030;-75
2021/09/04 11:05:36;;;;;;;74.50;39.60;;;;;;;19.11;66.22;101609.13;4981353;28;20136;-76